Time;durP1;ratioP1;P1;durP2;ratioP2;P2;SDS_P1;SDS_P2;PMS_P1;PMS_P2;Temp;Humidity;BMP_temperature;BMP_pressure;BME280_temperature;BME280_humidity;BME280_pressure;Samples;Min_cycle;Max_cycle;Signal;HPM_P1;HPM_P2
2021/10/14 00:00:08;;;;;;;2.70;1.27;;;6.20;99.90;;;;;;5023275;28;20465;-82
2021/10/14 00:02:34;;;;;;;2.67;1.00;;;6.20;99.90;;;;;;5023375;28;20041;-82
2021/10/14 00:04:59;;;;;;;2.27;1.07;;;6.20;99.90;;;;;;5025694;28;20029;-81
2021/10/14 00:07:25;;;;;;;2.10;0.80;;;6.20;99.90;;;;;;5024380;28;20470;-82
2021/10/14 00:09:51;;;;;;;4.10;1.33;;;6.20;99.90;;;;;;5012702;28;20042;-82
2021/10/14 00:12:16;;;;;;;2.97;1.13;;;6.10;99.90;;;;;;5019255;28;20022;-82
2021/10/14 00:14:42;;;;;;;3.77;1.37;;;6.10;99.90;;;;;;5026227;28;20379;-81
2021/10/14 00:17:07;;;;;;;2.27;1.30;;;6.10;99.90;;;;;;5035871;28;20054;-81
2021/10/14 00:19:33;;;;;;;3.30;1.30;;;6.00;99.90;;;;;;5038990;28;20040;-81
2021/10/14 00:21:59;;;;;;;5.10;1.47;;;6.00;99.90;;;;;;5019029;28;20041;-81
2021/10/14 00:24:24;;;;;;;2.73;1.03;;;6.00;99.90;;;;;;5028723;28;20043;-81
2021/10/14 00:26:50;;;;;;;2.73;1.17;;;5.90;99.90;;;;;;5037982;28;20025;-82
2021/10/14 00:29:16;;;;;;;3.20;1.30;;;5.90;99.90;;;;;;5030064;28;20031;-81
2021/10/14 00:31:41;;;;;;;2.93;1.10;;;5.90;99.90;;;;;;5017997;28;20500;-82
2021/10/14 00:34:07;;;;;;;1.93;1.07;;;5.90;99.90;;;;;;5016637;28;20022;-81
2021/10/14 00:36:33;;;;;;;3.70;1.40;;;5.90;99.90;;;;;;5014220;28;20034;-81
2021/10/14 00:38:58;;;;;;;2.80;1.20;;;5.90;99.90;;;;;;5018779;28;20033;-81
2021/10/14 00:41:24;;;;;;;3.60;1.30;;;5.80;99.90;;;;;;5024503;28;20029;-81
2021/10/14 00:43:56;;;;;;;4.23;1.43;;;5.80;99.90;;;;;;5033403;28;20029;-82
2021/10/14 00:46:21;;;;;;;2.50;0.90;;;5.90;99.90;;;;;;5005950;28;20040;-81
2021/10/14 00:48:47;;;;;;;3.90;1.33;;;5.80;99.90;;;;;;5013112;28;20445;-81
2021/10/14 00:51:13;;;;;;;1.50;0.80;;;5.80;99.90;;;;;;5010929;28;20405;-81
2021/10/14 00:53:39;;;;;;;2.67;1.30;;;5.70;99.90;;;;;;5012777;28;20429;-81
2021/10/14 00:56:08;;;;;;;1.90;0.90;;;5.70;99.90;;;;;;5008665;28;20030;-81
2021/10/14 00:58:36;;;;;;;2.17;0.77;;;5.70;99.90;;;;;;5010656;28;20033;-82
2021/10/14 01:01:03;;;;;;;2.57;1.30;;;5.70;99.90;;;;;;5010758;28;20037;-81
2021/10/14 01:03:29;;;;;;;3.10;1.20;;;5.70;99.90;;;;;;5012959;28;20038;-82
2021/10/14 01:05:55;;;;;;;4.13;1.33;;;5.60;99.90;;;;;;5012177;28;20029;-82
2021/10/14 01:08:21;;;;;;;3.77;1.23;;;5.50;99.90;;;;;;5012992;28;20041;-81
2021/10/14 01:10:47;;;;;;;3.00;1.20;;;5.50;99.90;;;;;;5012001;28;20034;-81
2021/10/14 01:13:13;;;;;;;4.03;1.37;;;5.50;99.90;;;;;;5013253;28;20060;-81
2021/10/14 01:15:39;;;;;;;2.93;1.20;;;5.50;99.90;;;;;;5012172;28;20364;-81
2021/10/14 01:18:04;;;;;;;9.17;1.30;;;5.50;99.90;;;;;;5011209;28;20061;-81
2021/10/14 01:20:30;;;;;;;3.67;1.23;;;5.50;99.90;;;;;;5011280;28;20026;-82
2021/10/14 01:22:57;;;;;;;3.83;1.43;;;5.50;99.90;;;;;;5013918;28;20034;-82
2021/10/14 01:25:24;;;;;;;5.53;1.70;;;5.50;99.90;;;;;;5031858;28;20048;-82
2021/10/14 01:27:50;;;;;;;3.37;1.30;;;5.50;99.90;;;;;;5018528;28;20113;-81
2021/10/14 01:30:16;;;;;;;4.27;1.33;;;5.50;99.90;;;;;;5011672;28;20026;-81
2021/10/14 01:32:43;;;;;;;3.57;1.37;;;5.50;99.90;;;;;;5011860;28;20471;-82
2021/10/14 01:35:09;;;;;;;3.73;1.33;;;5.50;99.90;;;;;;5012655;28;20022;-82
2021/10/14 01:37:35;;;;;;;3.30;1.30;;;5.50;99.90;;;;;;5015399;28;20875;-81
2021/10/14 01:40:01;;;;;;;2.20;1.10;;;5.50;99.90;;;;;;5016039;28;20025;-82
2021/10/14 01:42:27;;;;;;;3.67;1.40;;;5.60;99.90;;;;;;5015195;28;20211;-82
2021/10/14 01:44:53;;;;;;;3.13;1.23;;;5.50;99.90;;;;;;5016558;28;20410;-82
2021/10/14 01:47:18;;;;;;;4.63;1.30;;;5.40;99.90;;;;;;5015504;28;20507;-82
2021/10/14 01:49:44;;;;;;;3.13;1.00;;;5.40;99.90;;;;;;5021276;28;20060;-81
2021/10/14 01:52:10;;;;;;;3.67;1.37;;;5.40;99.90;;;;;;5032294;28;20037;-81
2021/10/14 01:54:35;;;;;;;4.67;1.37;;;5.40;99.90;;;;;;5013173;28;20026;-81
2021/10/14 01:57:01;;;;;;;3.93;1.57;;;5.30;99.90;;;;;;5029956;28;20024;-81
2021/10/14 01:59:26;;;;;;;3.37;1.77;;;5.40;99.90;;;;;;5035567;28;20432;-81
2021/10/14 02:01:52;;;;;;;3.17;1.30;;;5.40;99.90;;;;;;5034105;28;20053;-81
2021/10/14 02:04:18;;;;;;;2.90;1.30;;;5.40;99.90;;;;;;5026100;28;20027;-81
2021/10/14 02:06:43;;;;;;;5.13;1.57;;;5.30;99.90;;;;;;4996461;28;20022;-81
2021/10/14 02:09:09;;;;;;;3.57;1.27;;;5.40;99.90;;;;;;5008858;28;20104;-81
2021/10/14 02:11:34;;;;;;;3.93;1.20;;;5.40;99.90;;;;;;5015348;28;20041;-81
2021/10/14 02:14:00;;;;;;;3.63;1.37;;;5.40;99.90;;;;;;5013775;28;20383;-81
2021/10/14 02:16:25;;;;;;;3.83;1.40;;;5.30;99.90;;;;;;5016082;28;20034;-81
2021/10/14 02:18:51;;;;;;;4.50;1.53;;;5.30;99.90;;;;;;5015539;28;20045;-81
2021/10/14 02:21:18;;;;;;;3.80;1.30;;;5.30;99.90;;;;;;5013245;28;20026;-82
2021/10/14 02:23:44;;;;;;;3.10;1.20;;;5.30;99.90;;;;;;5015769;28;20026;-81
2021/10/14 02:26:10;;;;;;;3.53;1.40;;;5.20;99.90;;;;;;5015421;28;20026;-82
2021/10/14 02:28:35;;;;;;;3.83;1.20;;;5.20;99.90;;;;;;5017535;28;20052;-82
2021/10/14 02:31:01;;;;;;;2.83;1.20;;;5.20;99.90;;;;;;5017765;28;20026;-82
2021/10/14 02:33:26;;;;;;;3.73;1.43;;;5.20;99.90;;;;;;5017351;28;20038;-81
2021/10/14 02:35:52;;;;;;;4.60;1.30;;;5.20;99.90;;;;;;5016325;28;20052;-82
2021/10/14 02:38:17;;;;;;;3.70;1.57;;;5.20;99.90;;;;;;5009167;28;20491;-82
2021/10/14 02:40:43;;;;;;;3.73;1.50;;;5.10;99.90;;;;;;5013011;28;20029;-82
2021/10/14 02:43:09;;;;;;;3.97;1.77;;;5.10;99.90;;;;;;5015731;28;20105;-81
2021/10/14 02:45:34;;;;;;;3.77;1.23;;;5.10;99.90;;;;;;5015354;28;20033;-82
2021/10/14 02:48:00;;;;;;;3.43;1.50;;;5.10;99.90;;;;;;5009906;28;20629;-81
2021/10/14 02:50:26;;;;;;;4.47;1.40;;;5.20;99.90;;;;;;4994995;28;20451;-82
2021/10/14 02:52:51;;;;;;;4.33;1.47;;;5.10;99.90;;;;;;5003988;28;20483;-82
2021/10/14 02:55:17;;;;;;;3.80;1.30;;;5.10;99.90;;;;;;5007496;28;20057;-82
2021/10/14 02:57:42;;;;;;;5.07;1.77;;;5.00;99.90;;;;;;5014424;28;20046;-81
2021/10/14 03:00:09;;;;;;;5.57;1.80;;;5.10;99.90;;;;;;5013586;28;20026;-82
2021/10/14 03:02:34;;;;;;;4.00;2.10;;;5.10;99.90;;;;;;5014243;28;20433;-81
2021/10/14 03:05:00;;;;;;;3.03;1.40;;;5.00;99.90;;;;;;5014257;28;20061;-81
2021/10/14 03:07:25;;;;;;;3.07;1.50;;;5.00;99.90;;;;;;5016860;28;20508;-82
2021/10/14 03:09:51;;;;;;;3.47;1.33;;;5.10;99.90;;;;;;5013194;28;20320;-81
2021/10/14 03:15:23;;;;;;;5.27;1.80;;;5.10;99.90;;;;;;5012646;28;20099;-83
2021/10/14 03:18:00;;;;;;;4.50;1.30;;;5.00;99.90;;;;;;5017104;28;20029;-82
2021/10/14 03:20:31;;;;;;;2.97;1.20;;;5.00;99.90;;;;;;5002392;28;20065;-82
2021/10/14 03:22:58;;;;;;;4.30;2.00;;;5.10;99.90;;;;;;5014286;28;20029;-81
2021/10/14 03:25:24;;;;;;;3.07;1.53;;;5.00;99.90;;;;;;5012039;28;20048;-82
2021/10/14 03:28:00;;;;;;;3.17;1.57;;;5.10;99.90;;;;;;5012586;28;20025;-83
2021/10/14 03:30:36;;;;;;;4.03;1.50;;;5.20;99.90;;;;;;5014664;28;20061;-84
2021/10/14 03:33:35;;;;;;;;;;;;;;;;;;;;;
2021/10/14 03:36:06;;;;;;;4.60;1.50;;;5.10;99.90;;;;;;5001251;28;20022;-83
2021/10/14 03:38:34;;;;;;;3.83;1.77;;;5.10;99.90;;;;;;5024170;28;20027;-83
2021/10/14 03:41:09;;;;;;;3.90;1.53;;;5.10;99.90;;;;;;5011499;28;20669;-82
2021/10/14 03:43:42;;;;;;;2.47;1.10;;;5.10;99.90;;;;;;4997872;28;20038;-82
2021/10/14 03:46:13;;;;;;;3.80;1.60;;;5.10;99.90;;;;;;4996725;28;20431;-81
2021/10/14 03:48:41;;;;;;;3.77;1.53;;;5.10;99.90;;;;;;5021556;28;20106;-83
2021/10/14 03:51:10;;;;;;;3.13;1.43;;;4.90;99.90;;;;;;4994358;28;20053;-83
2021/10/14 03:53:36;;;;;;;6.53;1.87;;;5.00;99.90;;;;;;4991817;28;20031;-82
2021/10/14 03:56:02;;;;;;;4.30;1.23;;;4.90;99.90;;;;;;5004018;28;20387;-83
2021/10/14 03:58:36;;;;;;;4.17;1.20;;;4.90;99.90;;;;;;5020286;28;20482;-83
2021/10/14 04:01:04;;;;;;;3.37;1.47;;;4.90;99.90;;;;;;5010056;28;20029;-83
2021/10/14 04:03:38;;;;;;;3.50;1.57;;;4.90;99.90;;;;;;4998476;28;20048;-81
2021/10/14 04:06:04;;;;;;;3.60;1.43;;;4.90;99.90;;;;;;5013253;28;20030;-82
2021/10/14 04:08:32;;;;;;;2.73;1.23;;;4.80;99.90;;;;;;5017336;28;20544;-83
2021/10/14 04:10:58;;;;;;;3.20;1.40;;;4.80;99.90;;;;;;4994199;28;20072;-83
2021/10/14 04:13:23;;;;;;;2.70;1.20;;;4.80;99.90;;;;;;5005616;28;20108;-82
2021/10/14 04:15:49;;;;;;;3.60;1.43;;;4.80;99.90;;;;;;5009468;28;20022;-83
2021/10/14 04:18:15;;;;;;;3.33;1.33;;;4.80;99.90;;;;;;5013946;28;20384;-82
2021/10/14 04:20:40;;;;;;;4.60;1.73;;;4.80;99.90;;;;;;5011470;28;20025;-83
2021/10/14 04:23:12;;;;;;;3.23;1.40;;;4.80;99.90;;;;;;4998843;28;20030;-83
2021/10/14 04:25:38;;;;;;;3.40;1.17;;;4.80;99.90;;;;;;4996423;28;20134;-84
2021/10/14 04:28:07;;;;;;;2.80;1.00;;;6.40;99.90;;;;;;4986976;28;20049;-83
2021/10/14 04:30:38;;;;;;;4.83;1.53;;;3.60;99.90;;;;;;5018598;28;20045;-83
2021/10/14 04:33:04;;;;;;;3.97;1.20;;;4.90;99.90;;;;;;5017848;28;20018;-81
2021/10/14 04:35:29;;;;;;;2.87;1.07;;;3.90;99.90;;;;;;5000538;28;20318;-83
2021/10/14 04:37:58;;;;;;;2.97;1.53;;;6.50;99.90;;;;;;5017569;28;20102;-82
2021/10/14 04:40:33;;;;;;;2.67;1.13;;;5.20;99.90;;;;;;5001649;28;20054;-83
2021/10/14 04:43:01;;;;;;;4.00;1.33;;;6.20;99.90;;;;;;5015939;28;20026;-83
2021/10/14 04:45:32;;;;;;;2.87;1.17;;;4.40;99.90;;;;;;5012663;28;20501;-83
2021/10/14 04:47:58;;;;;;;3.03;1.40;;;5.40;99.90;;;;;;5017109;28;20513;-81
2021/10/14 04:50:29;;;;;;;4.17;1.53;;;5.80;99.90;;;;;;4998566;28;20017;-83
2021/10/14 04:52:57;;;;;;;3.13;1.37;;;5.10;99.90;;;;;;5016003;28;20486;-81
2021/10/14 04:55:23;;;;;;;2.40;1.00;;;4.90;99.90;;;;;;5011817;28;20026;-82
2021/10/14 04:57:48;;;;;;;3.57;1.43;;;5.00;99.90;;;;;;5013067;28;20026;-81
2021/10/14 05:00:14;;;;;;;2.83;0.90;;;6.60;99.90;;;;;;5028787;28;20030;-82
2021/10/14 05:02:40;;;;;;;3.00;1.00;;;5.00;99.90;;;;;;5008374;28;20026;-80
2021/10/14 05:05:06;;;;;;;2.70;1.30;;;5.00;99.90;;;;;;5007367;28;20034;-80
2021/10/14 05:07:34;;;;;;;3.40;1.43;;;5.10;99.90;;;;;;4986985;28;20045;-81
2021/10/14 05:10:00;;;;;;;3.20;1.20;;;4.90;99.90;;;;;;5011412;28;20044;-82
2021/10/14 05:12:25;;;;;;;3.73;1.30;;;5.10;99.90;;;;;;5019624;28;20026;-82
2021/10/14 05:14:51;;;;;;;4.00;1.30;;;5.00;99.90;;;;;;5015772;28;20026;-80
2021/10/14 05:17:17;;;;;;;3.50;1.50;;;5.20;99.90;;;;;;5019041;28;20025;-80
2021/10/14 05:19:42;;;;;;;2.77;1.20;;;5.10;99.90;;;;;;5014895;28;20021;-81
2021/10/14 05:22:08;;;;;;;2.33;1.03;;;5.10;99.90;;;;;;5022339;28;20268;-79
2021/10/14 05:24:34;;;;;;;3.77;1.47;;;5.10;99.90;;;;;;5010984;28;20116;-80
2021/10/14 05:26:59;;;;;;;2.83;1.27;;;5.10;99.90;;;;;;4989860;28;20095;-80
2021/10/14 05:29:25;;;;;;;2.90;0.87;;;5.10;99.90;;;;;;4994910;28;20106;-79
2021/10/14 05:31:50;;;;;;;4.20;1.30;;;5.20;99.90;;;;;;4994932;28;20026;-80
2021/10/14 05:34:16;;;;;;;4.27;1.63;;;5.20;99.90;;;;;;4992653;28;20025;-80
2021/10/14 05:36:41;;;;;;;3.13;1.30;;;5.30;99.90;;;;;;5012684;28;20021;-81
2021/10/14 05:39:07;;;;;;;3.70;1.50;;;5.30;99.90;;;;;;5024735;28;20104;-78
2021/10/14 05:41:33;;;;;;;3.83;1.30;;;5.20;99.90;;;;;;5016091;28;20029;-80
2021/10/14 05:43:58;;;;;;;4.07;1.20;;;5.30;99.90;;;;;;5020087;28;20034;-81
2021/10/14 05:46:24;;;;;;;4.27;1.40;;;5.20;99.90;;;;;;4998833;28;20499;-81
2021/10/14 05:48:49;;;;;;;2.47;1.13;;;5.00;99.90;;;;;;5014722;28;20026;-81
2021/10/14 05:51:15;;;;;;;1.83;0.70;;;5.00;99.90;;;;;;5014595;28;20084;-80
2021/10/14 05:53:40;;;;;;;4.47;1.30;;;5.00;99.90;;;;;;5016015;28;20387;-81
2021/10/14 05:56:06;;;;;;;4.83;1.40;;;5.00;99.90;;;;;;5016919;28;20097;-81
2021/10/14 05:58:32;;;;;;;4.47;1.63;;;5.00;99.90;;;;;;5003720;28;20108;-81
2021/10/14 06:00:57;;;;;;;2.50;1.17;;;4.90;99.90;;;;;;5011894;28;20038;-80
2021/10/14 06:03:23;;;;;;;3.27;1.33;;;4.90;99.90;;;;;;5003190;28;20030;-80
2021/10/14 06:05:49;;;;;;;3.67;1.47;;;5.00;99.90;;;;;;5028862;28;20032;-79
2021/10/14 06:08:14;;;;;;;4.73;1.27;;;4.90;99.90;;;;;;5015627;28;20116;-79
2021/10/14 06:10:40;;;;;;;2.57;1.17;;;4.90;99.90;;;;;;5022772;28;20032;-80
2021/10/14 06:13:06;;;;;;;3.37;1.33;;;5.10;99.90;;;;;;5015056;28;20022;-80
2021/10/14 06:15:33;;;;;;;6.10;1.60;;;5.00;99.90;;;;;;5001223;28;20095;-80
2021/10/14 06:17:58;;;;;;;3.30;1.30;;;4.90;99.90;;;;;;5025826;28;20033;-80
2021/10/14 06:20:24;;;;;;;3.80;1.40;;;4.90;99.90;;;;;;5013420;28;20386;-80
2021/10/14 06:22:49;;;;;;;3.10;1.40;;;4.90;99.90;;;;;;4986565;28;20076;-79
2021/10/14 06:25:15;;;;;;;8.10;1.37;;;4.90;99.90;;;;;;5014198;28;20038;-81
2021/10/14 06:27:41;;;;;;;5.40;1.60;;;5.00;99.90;;;;;;4996484;28;20029;-79
2021/10/14 06:30:07;;;;;;;3.40;1.20;;;5.00;99.90;;;;;;4999639;28;20491;-80
2021/10/14 06:32:33;;;;;;;3.80;1.10;;;5.00;99.90;;;;;;4988439;28;20586;-80
2021/10/14 06:34:58;;;;;;;3.40;1.17;;;5.00;99.90;;;;;;5014582;28;20026;-81
2021/10/14 06:37:24;;;;;;;4.73;1.53;;;5.10;99.90;;;;;;4999367;28;20562;-80
2021/10/14 06:39:49;;;;;;;3.90;1.60;;;5.30;99.90;;;;;;4995040;28;20025;-80
2021/10/14 06:42:15;;;;;;;4.43;1.47;;;5.20;99.90;;;;;;5018119;28;20038;-79
2021/10/14 06:44:41;;;;;;;3.13;1.30;;;5.30;99.90;;;;;;5010906;28;20052;-80
2021/10/14 06:47:06;;;;;;;3.37;1.20;;;5.30;99.90;;;;;;5004832;28;20031;-80
2021/10/14 06:49:32;;;;;;;6.23;2.90;;;5.40;99.90;;;;;;5004539;28;20037;-78
2021/10/14 06:51:57;;;;;;;4.73;1.67;;;5.50;99.90;;;;;;5012297;28;20475;-86
2021/10/14 06:54:23;;;;;;;7.53;2.30;;;5.40;99.90;;;;;;5010909;28;20021;-87
2021/10/14 06:56:49;;;;;;;3.63;1.50;;;5.30;99.90;;;;;;4995178;28;20029;-86
2021/10/14 06:59:15;;;;;;;3.00;1.30;;;5.50;99.90;;;;;;4990890;28;20113;-85
2021/10/14 07:01:40;;;;;;;4.10;1.70;;;5.40;99.90;;;;;;4975889;28;20030;-85
2021/10/14 07:04:06;;;;;;;7.87;1.57;;;5.50;99.90;;;;;;5001916;28;20037;-85
2021/10/14 07:06:32;;;;;;;3.70;1.67;;;5.50;99.90;;;;;;4995549;28;20552;-85
2021/10/14 07:08:58;;;;;;;5.07;1.73;;;5.50;99.90;;;;;;4989829;28;20120;-85
2021/10/14 07:11:30;;;;;;;4.17;1.43;;;5.40;99.90;;;;;;4989904;28;20037;-85
2021/10/14 07:13:56;;;;;;;3.73;1.40;;;5.60;99.90;;;;;;5001220;28;20018;-85
2021/10/14 07:16:22;;;;;;;5.77;1.80;;;5.40;99.90;;;;;;5010422;28;20117;-85
2021/10/14 07:18:48;;;;;;;3.90;1.33;;;5.70;99.90;;;;;;4997013;28;20113;-85
2021/10/14 07:21:14;;;;;;;3.90;1.77;;;5.80;99.90;;;;;;5009504;28;20351;-86
2021/10/14 07:23:39;;;;;;;4.00;1.93;;;5.90;99.90;;;;;;5010705;28;20036;-86
2021/10/14 07:26:05;;;;;;;4.60;1.63;;;5.90;99.90;;;;;;4998539;28;20030;-86
2021/10/14 07:28:31;;;;;;;4.07;1.47;;;6.00;99.90;;;;;;5011685;28;20042;-87
2021/10/14 07:30:56;;;;;;;6.37;1.87;;;5.90;99.90;;;;;;5009509;28;20029;-87
2021/10/14 07:33:23;;;;;;;7.13;2.27;;;6.10;99.90;;;;;;5000511;28;20117;-87
2021/10/14 07:35:48;;;;;;;5.70;1.70;;;6.00;99.90;;;;;;5006404;28;20026;-86
2021/10/14 07:38:14;;;;;;;4.33;1.80;;;6.20;99.90;;;;;;4974611;28;20026;-87
2021/10/14 07:40:43;;;;;;;3.57;1.63;;;6.30;99.90;;;;;;5002191;28;20026;-87
2021/10/14 07:43:12;;;;;;;4.40;1.60;;;6.20;99.90;;;;;;5003648;28;20033;-86
2021/10/14 07:45:39;;;;;;;4.43;2.00;;;6.40;99.90;;;;;;5019191;28;20044;-86
2021/10/14 07:48:07;;;;;;;3.57;1.27;;;6.30;99.90;;;;;;5002601;28;20120;-86
2021/10/14 07:50:36;;;;;;;3.50;1.50;;;6.50;99.90;;;;;;5006828;28;20394;-86
2021/10/14 07:53:08;;;;;;;4.40;1.30;;;6.40;99.90;;;;;;4993407;28;20514;-86
2021/10/14 07:55:34;;;;;;;6.90;1.50;;;6.80;99.90;;;;;;4997432;28;20061;-86
2021/10/14 07:57:59;;;;;;;3.10;1.30;;;6.80;99.90;;;;;;4974447;28;20038;-86
2021/10/14 08:00:26;;;;;;;4.03;1.30;;;7.00;99.90;;;;;;5006296;28;20029;-87
2021/10/14 08:02:52;;;;;;;3.50;1.30;;;7.10;99.90;;;;;;4997068;28;20050;-86
2021/10/14 08:05:19;;;;;;;5.03;1.67;;;7.10;99.90;;;;;;4998118;28;20027;-86
2021/10/14 08:07:46;;;;;;;3.83;1.73;;;7.20;99.90;;;;;;4973722;28;20022;-87
2021/10/14 08:10:12;;;;;;;3.77;1.33;;;7.20;99.90;;;;;;5003023;28;20030;-86
2021/10/14 08:12:38;;;;;;;2.33;1.13;;;7.30;99.90;;;;;;5009808;28;20084;-86
2021/10/14 08:15:04;;;;;;;4.57;1.40;;;7.10;99.90;;;;;;5004418;28;20348;-86
2021/10/14 08:17:31;;;;;;;3.27;1.43;;;7.40;99.90;;;;;;4993695;28;20116;-87
2021/10/14 08:19:57;;;;;;;4.33;1.43;;;7.50;99.90;;;;;;4986611;28;20037;-87
2021/10/14 08:22:23;;;;;;;1.83;0.83;;;7.70;99.90;;;;;;4992365;28;20026;-87
2021/10/14 08:24:49;;;;;;;3.50;1.10;;;7.90;99.90;;;;;;5010979;28;20036;-87
2021/10/14 08:27:15;;;;;;;5.77;1.37;;;8.00;99.90;;;;;;5009585;28;20034;-86
2021/10/14 08:29:41;;;;;;;3.80;1.83;;;8.20;99.90;;;;;;5007510;28;20026;-87
2021/10/14 08:32:06;;;;;;;2.50;1.10;;;7.90;99.90;;;;;;5015267;28;20048;-87
2021/10/14 08:34:32;;;;;;;2.83;0.93;;;8.40;99.90;;;;;;5009788;28;20546;-88
2021/10/14 08:36:58;;;;;;;2.80;1.50;;;8.90;99.90;;;;;;5005766;28;20026;-88
2021/10/14 08:39:23;;;;;;;4.17;1.20;;;8.90;99.90;;;;;;4994218;28;20049;-87
2021/10/14 08:41:50;;;;;;;3.17;1.20;;;8.60;99.90;;;;;;4992393;28;20037;-87
2021/10/14 08:44:24;;;;;;;3.60;1.20;;;8.40;99.90;;;;;;5003478;28;20030;-89
2021/10/14 08:46:50;;;;;;;4.00;1.07;;;8.60;99.90;;;;;;4987018;28;20044;-88
2021/10/14 08:49:16;;;;;;;3.43;1.20;;;8.60;99.90;;;;;;5000061;28;20389;-87
2021/10/14 08:51:43;;;;;;;2.10;0.90;;;8.70;99.90;;;;;;4998079;28;20117;-88
2021/10/14 08:54:08;;;;;;;2.13;0.80;;;9.10;99.90;;;;;;4993544;28;20486;-88
2021/10/14 08:56:34;;;;;;;4.50;1.10;;;9.00;99.90;;;;;;4993657;28;20022;-88
2021/10/14 08:59:01;;;;;;;3.37;1.20;;;10.40;99.90;;;;;;5013016;28;20033;-88
2021/10/14 09:01:26;;;;;;;2.83;1.00;;;8.90;99.90;;;;;;5001149;28;20067;-88
2021/10/14 09:03:54;;;;;;;3.20;1.10;;;8.70;99.90;;;;;;4993181;28;20485;-88
2021/10/14 09:06:20;;;;;;;2.40;1.15;;;9.90;99.90;;;;;;4995737;28;20049;-88
2021/10/14 09:08:51;;;;;;;3.87;1.33;;;9.00;99.90;;;;;;5012170;28;20067;-89
2021/10/14 09:11:25;;;;;;;2.00;0.80;;;9.80;99.90;;;;;;5026553;23;20468;-83
2021/10/14 09:13:57;;;;;;;4.22;1.40;;;9.20;99.90;;;;;;4989930;28;20035;-83
2021/10/14 09:16:30;;;;;;;2.53;0.90;;;9.40;99.90;;;;;;4990630;28;20097;-83
2021/10/14 09:19:16;;;;;;;3.28;0.93;;;9.60;99.90;;;;;;5001373;28;20534;-84
2021/10/14 09:21:51;;;;;;;3.83;1.30;;;10.50;99.90;;;;;;4996991;28;20130;-81
2021/10/14 09:24:38;;;;;;;1.73;0.90;;;10.10;99.90;;;;;;5047177;28;20025;-81
2021/10/14 09:27:09;;;;;;;2.70;1.10;;;10.50;99.90;;;;;;5015992;28;20048;-81
2021/10/14 09:29:37;;;;;;;2.05;0.90;;;10.60;99.90;;;;;;5028190;28;20389;-82
2021/10/14 09:32:14;;;;;;;2.90;1.00;;;10.70;99.90;;;;;;5020523;28;20120;-81
2021/10/14 09:34:41;;;;;;;2.10;0.65;;;10.60;99.90;;;;;;5032475;28;20014;-81
2021/10/14 09:37:16;;;;;;;3.85;1.05;;;10.70;99.90;;;;;;5029428;28;20033;-81
2021/10/14 09:40:01;;;;;;;1.75;0.80;;;12.10;99.90;;;;;;5016335;28;20030;-81
2021/10/14 09:42:55;;;;;;;2.92;0.85;;;10.70;99.90;;;;;;5033440;28;20022;-81
2021/10/14 09:45:21;;;;;;;2.75;0.88;;;10.80;99.90;;;;;;5015803;28;20054;-81
2021/10/14 09:47:49;;;;;;;1.77;0.93;;;11.00;99.90;;;;;;5012068;28;20023;-81
2021/10/14 09:50:15;;;;;;;2.08;0.80;;;11.10;99.90;;;;;;5012851;28;20088;-81
2021/10/14 09:52:43;;;;;;;3.55;0.82;;;10.80;99.90;;;;;;5034667;28;20017;-80
2021/10/14 09:55:11;;;;;;;2.33;0.63;;;11.00;99.90;;;;;;5014337;28;20578;-81
2021/10/14 09:57:39;;;;;;;3.78;0.88;;;11.00;99.90;;;;;;5031705;28;20030;-82
2021/10/14 10:00:05;;;;;;;2.45;0.80;;;11.00;99.90;;;;;;5032257;28;20033;-82
2021/10/14 10:02:31;;;;;;;1.45;0.68;;;10.80;99.90;;;;;;5033516;28;20032;-82
2021/10/14 10:04:57;;;;;;;3.55;0.80;;;10.80;99.90;;;;;;5026157;28;20116;-81
2021/10/14 10:07:24;;;;;;;2.72;0.85;;;10.90;99.90;;;;;;5017524;28;20374;-82
2021/10/14 10:09:50;;;;;;;2.22;0.90;;;11.10;99.90;;;;;;5016525;28;20029;-82
2021/10/14 10:12:16;;;;;;;2.55;1.05;;;11.30;99.90;;;;;;5035235;28;20371;-83
2021/10/14 10:14:41;;;;;;;2.35;0.90;;;11.40;99.90;;;;;;5032010;28;20029;-82
2021/10/14 10:17:11;;;;;;;2.03;0.63;;;11.50;99.90;;;;;;5035133;28;20083;-82
2021/10/14 10:19:48;;;;;;;1.42;0.70;;;11.60;99.90;;;;;;5025723;28;20021;-82
2021/10/14 10:22:33;;;;;;;2.78;0.93;;;11.60;99.90;;;;;;5041153;28;20036;-82
2021/10/14 10:25:24;;;;;;;3.38;0.90;;;11.60;99.90;;;;;;5022423;28;20021;-83
2021/10/14 10:27:55;;;;;;;3.47;0.60;;;11.60;99.90;;;;;;5027212;28;20087;-84
2021/10/14 10:30:37;;;;;;;1.38;0.70;;;12.10;99.90;;;;;;5025136;28;20121;-84
2021/10/14 10:33:05;;;;;;;3.38;0.77;;;12.00;99.90;;;;;;5029812;28;20064;-84
2021/10/14 10:35:40;;;;;;;4.75;0.98;;;11.80;99.90;;;;;;5014544;28;20197;-83
2021/10/14 10:38:21;;;;;;;1.55;0.65;;;12.00;99.90;;;;;;5014585;28;20034;-84
2021/10/14 10:40:50;;;;;;;2.58;0.80;;;12.80;99.90;;;;;;5030584;28;20029;-84
2021/10/14 10:43:33;;;;;;;1.63;0.65;;;12.10;99.90;;;;;;5012318;28;20034;-83
2021/10/14 10:46:08;;;;;;;3.53;1.00;;;12.30;99.90;;;;;;5012318;28;20474;-84
2021/10/14 10:48:35;;;;;;;2.20;0.70;;;12.40;99.90;;;;;;4994389;28;20030;-84
2021/10/14 10:51:02;;;;;;;1.58;0.50;;;12.30;99.90;;;;;;5012127;28;20034;-84
2021/10/14 10:53:42;;;;;;;2.08;0.77;;;12.70;99.90;;;;;;5011219;28;20025;-84
2021/10/14 10:56:27;;;;;;;1.60;0.75;;;12.50;99.90;;;;;;5012497;28;20474;-84
2021/10/14 10:58:54;;;;;;;1.67;0.60;;;12.60;99.90;;;;;;5000676;28;20057;-85
2021/10/14 11:01:20;;;;;;;1.45;0.65;;;12.70;99.90;;;;;;5011197;28;20545;-84
2021/10/14 11:04:00;;;;;;;2.97;1.35;;;12.50;99.90;;;;;;4999037;28;20115;-84
2021/10/14 11:06:31;;;;;;;1.95;0.68;;;12.60;99.90;;;;;;5034535;28;20029;-84
2021/10/14 11:09:04;;;;;;;1.65;0.60;;;12.80;99.90;;;;;;5013891;28;20114;-84
2021/10/14 11:11:31;;;;;;;1.42;0.43;;;13.50;99.90;;;;;;5022159;28;20620;-84
2021/10/14 11:13:57;;;;;;;1.15;0.60;;;13.10;99.90;;;;;;5026625;28;20108;-84
2021/10/14 11:16:28;;;;;;;3.22;1.10;;;13.40;99.90;;;;;;5013025;28;20160;-84
2021/10/14 11:18:56;;;;;;;1.65;0.70;;;13.60;99.90;;;;;;5031016;28;20026;-84
2021/10/14 11:21:24;;;;;;;2.05;0.40;;;13.50;99.90;;;;;;5012405;28;20634;-84
2021/10/14 11:23:53;;;;;;;1.35;0.20;;;13.80;99.90;;;;;;5011000;28;20036;-84
2021/10/14 11:26:57;;;;;;;1.77;0.50;;;13.70;99.90;;;;;;5012723;28;20026;-84
2021/10/14 11:29:22;;;;;;;1.70;0.60;;;13.70;99.90;;;;;;5034950;28;20060;-84
2021/10/14 11:31:58;;;;;;;;;;;13.80;99.90;;;;;;5047867;28;20029;-84
2021/10/14 11:34:26;;;;;;;1.10;0.40;;;14.10;99.90;;;;;;5009972;28;20541;-84
2021/10/14 11:36:52;;;;;;;2.22;0.57;;;13.80;99.90;;;;;;5010207;28;20022;-84
2021/10/14 11:39:20;;;;;;;2.50;0.55;;;14.00;99.90;;;;;;5010954;28;20109;-83
2021/10/14 11:41:53;;;;;;;0.80;0.50;;;14.10;99.90;;;;;;4992714;28;20115;-84
2021/10/14 11:44:19;;;;;;;2.63;0.73;;;14.40;99.90;;;;;;5014092;28;20029;-84
2021/10/14 11:46:46;;;;;;;1.33;0.60;;;13.80;99.90;;;;;;5036393;28;20030;-84
2021/10/14 11:49:12;;;;;;;3.28;0.60;;;13.90;99.90;;;;;;5031451;28;20032;-84
2021/10/14 11:51:38;;;;;;;1.38;0.50;;;13.90;99.90;;;;;;5030746;28;20033;-84
2021/10/14 11:54:10;;;;;;;2.78;0.60;;;13.80;99.90;;;;;;5001276;28;20025;-84
2021/10/14 11:56:52;;;;;;;1.60;0.60;;;13.90;99.90;;;;;;5032893;28;20021;-84
2021/10/14 11:59:20;;;;;;;2.92;0.90;;;14.00;99.90;;;;;;5035782;28;20822;-84
2021/10/14 12:02:00;;;;;;;1.80;0.70;;;14.10;99.90;;;;;;5029930;28;20020;-84
2021/10/14 12:04:35;;;;;;;2.35;0.60;;;14.10;99.90;;;;;;5013086;28;20029;-84
2021/10/14 12:07:01;;;;;;;1.77;0.77;;;14.10;99.90;;;;;;5013975;28;20518;-83
2021/10/14 12:09:28;;;;;;;2.10;0.80;;;14.20;99.90;;;;;;5027084;28;20021;-83
2021/10/14 12:12:03;;;;;;;4.68;0.90;;;14.30;99.90;;;;;;5026371;28;20470;-83
2021/10/14 12:14:29;;;;;;;1.50;0.57;;;14.30;99.90;;;;;;5016181;28;20013;-83
2021/10/14 12:17:08;;;;;;;1.25;0.60;;;14.40;99.90;;;;;;5032111;28;20025;-83
2021/10/14 12:19:43;;;;;;;1.85;0.73;;;14.50;99.90;;;;;;5011252;28;20009;-85
2021/10/14 12:22:14;;;;;;;3.20;0.60;;;15.40;99.90;;;;;;5027913;28;20022;-82
2021/10/14 12:25:00;;;;;;;3.40;0.73;;;15.00;99.90;;;;;;5034624;28;20096;-83
2021/10/14 12:27:48;;;;;;;1.42;0.70;;;14.90;99.90;;;;;;5030368;28;20097;-84
2021/10/14 12:30:26;;;;;;;2.45;0.95;;;14.70;99.90;;;;;;5011119;28;20057;-81
2021/10/14 12:32:57;;;;;;;1.50;0.70;;;14.70;99.90;;;;;;5029720;28;20021;-82
2021/10/14 12:35:25;;;;;;;2.30;0.90;;;14.60;99.90;;;;;;5027438;28;20026;-81
2021/10/14 12:38:07;;;;;;;1.95;0.63;;;14.60;99.90;;;;;;5032063;28;20041;-81
2021/10/14 12:40:34;;;;;;;3.17;0.68;;;14.60;99.90;;;;;;5015040;28;20158;-82
2021/10/14 12:45:34;;;;;;;1.88;0.65;;;14.70;99.90;;;;;;5033394;28;20088;-81
2021/10/14 12:48:15;;;;;;;1.27;0.60;;;15.10;99.90;;;;;;5015146;28;20082;-81
2021/10/14 12:53:57;;;;;;;1.83;0.50;;;14.90;99.90;;;;;;4986832;28;20022;-81
2021/10/14 12:56:59;;;;;;;1.73;0.80;;;15.20;99.90;;;;;;5015256;28;20457;-82
2021/10/14 12:59:26;;;;;;;;;;;14.80;99.90;;;;;;5005390;28;20049;-81
2021/10/14 13:01:57;;;;;;;1.33;0.73;;;14.90;99.90;;;;;;5033478;28;19909;-83
2021/10/14 13:04:23;;;;;;;3.55;0.77;;;15.20;99.90;;;;;;5031238;28;20100;-81
2021/10/14 13:06:50;;;;;;;5.05;0.88;;;15.30;99.90;;;;;;5027185;28;20121;-83
2021/10/14 13:09:16;;;;;;;2.35;0.80;;;15.40;99.90;;;;;;5030458;28;20402;-82